Bird Town, Arkansas
Current Conditions -  °F | °C
As of 1:55 AM on Friday 19 Dec 2014 (Local Time) from KCCA Reporting Station
Haze Haze  
Wind Chill: 39°   Ceiling: 800
Heat Index: 39°   Visibility: 3mi
Dew Point: 39°   Wind: 0mph
Humidity: 100%   Direction: NA
Pressure: 30.23"   Gusts: NA
Location:  35.2739°N, 92.5381°W
Report Text: KCCA 190755Z AUTO 00000KT 3SM BR OVC008 04/04 A3023 RMK AO2
Loading
Personal Weather Stations






























Interactive Weather Map New forecast layout! Learn more

10-Day Weather Forecast

Advertisements
Track Severe Weather on mobile